Time;durP1;ratioP1;P1;durP2;ratioP2;P2;SDS_P1;SDS_P2;PMS_P1;PMS_P2;Temp;Humidity;BMP_temperature;BMP_pressure;BME280_temperature;BME280_humidity;BME280_pressure;Samples;Min_cycle;Max_cycle;Signal;HPM_P1;HPM_P2
2022/10/18 00:00:51;;;;;;;13.40;9.80;;;;;;;14.18;100.00;102370.88;5080292;28;20032;-82
2022/10/18 00:03:16;;;;;;;16.25;9.38;;;;;;;14.18;100.00;102374.44;5097617;28;20028;-82
2022/10/18 00:05:42;;;;;;;14.83;9.73;;;;;;;14.20;100.00;102372.34;5115004;28;20028;-82
2022/10/18 00:08:07;;;;;;;17.80;9.73;;;;;;;14.17;100.00;102361.84;5096744;28;20023;-83
2022/10/18 00:10:32;;;;;;;13.10;9.40;;;;;;;14.24;100.00;102370.03;5097241;28;20118;-83
2022/10/18 00:12:58;;;;;;;16.77;10.43;;;;;;;14.26;100.00;102372.56;5096883;28;20032;-83
2022/10/18 00:15:23;;;;;;;15.77;10.03;;;;;;;14.21;100.00;102365.00;5096915;28;20024;-83
2022/10/18 00:17:49;;;;;;;13.63;9.17;;;;;;;14.19;100.00;102367.94;5097322;28;20037;-82
2022/10/18 00:20:14;;;;;;;18.80;9.77;;;;;;;14.21;100.00;102370.47;5096724;28;20391;-83
2022/10/18 00:22:40;;;;;;;14.87;9.57;;;;;;;14.20;100.00;102364.16;5096702;28;20016;-83
2022/10/18 00:25:10;;;;;;;15.90;9.85;;;;;;;14.21;100.00;102371.28;5096895;28;20084;-83
2022/10/18 00:27:36;;;;;;;16.42;9.65;;;;;;;14.27;100.00;102377.81;5115207;28;20461;-83
2022/10/18 00:30:01;;;;;;;18.67;9.70;;;;;;;14.21;100.00;102368.56;5114786;28;20051;-83
2022/10/18 00:32:27;;;;;;;20.95;9.60;;;;;;;14.25;100.00;102371.75;5114501;28;20077;-83
2022/10/18 00:34:52;;;;;;;16.20;9.83;;;;;;;14.26;100.00;102370.72;5062723;28;20076;-83
2022/10/18 00:37:18;;;;;;;16.13;9.33;;;;;;;14.24;100.00;102366.50;5079278;28;20023;-83
2022/10/18 00:39:44;;;;;;;17.17;9.85;;;;;;;14.18;100.00;102363.50;5079495;28;20036;-82
2022/10/18 00:42:17;;;;;;;16.13;10.13;;;;;;;14.14;100.00;102362.25;5096278;28;20077;-83
2022/10/18 00:44:43;;;;;;;21.90;9.60;;;;;;;14.12;100.00;102368.94;5096700;28;20482;-83
2022/10/18 00:47:15;;;;;;;11.75;8.73;;;;;;;14.12;100.00;102368.94;5096183;28;20028;-83
2022/10/18 00:50:03;;;;;;;19.17;9.90;;;;;;;14.08;100.00;102368.50;5095974;28;20023;-83
2022/10/18 00:52:41;;;;;;;16.17;8.98;;;;;;;14.03;100.00;102371.00;5114381;28;20043;-83
2022/10/18 00:55:07;;;;;;;14.13;9.43;;;;;;;14.03;100.00;102373.72;5096284;28;20035;-83
2022/10/18 00:57:34;;;;;;;18.02;10.05;;;;;;;14.08;100.00;102373.13;5095957;28;20080;-83
2022/10/18 00:59:59;;;;;;;14.20;9.73;;;;;;;14.08;100.00;102375.84;5096037;28;20031;-83
2022/10/18 01:02:25;;;;;;;15.77;9.73;;;;;;;14.12;100.00;102379.88;5114291;28;20038;-83
2022/10/18 01:04:50;;;;;;;18.87;9.57;;;;;;;14.13;100.00;102382.38;5113977;28;20471;-83
2022/10/18 01:07:25;;;;;;;14.27;9.67;;;;;;;14.15;100.00;102383.03;5079087;28;20293;-83
2022/10/18 01:10:09;;;;;;;18.13;9.82;;;;;;;14.13;100.00;102381.53;5096009;28;20027;-83
2022/10/18 01:13:12;;;;;;;16.00;9.10;;;;;;;14.11;100.00;102392.66;5096464;28;20036;-83
2022/10/18 01:16:04;;;;;;;13.80;9.52;;;;;;;14.07;100.00;102383.22;5114144;28;20030;-83
2022/10/18 01:18:43;;;;;;;19.98;9.63;;;;;;;14.04;100.00;102384.44;5081315;28;20046;-83
2022/10/18 01:21:30;;;;;;;14.48;9.18;;;;;;;14.01;100.00;102384.84;5096681;28;20139;-83
2022/10/18 01:24:19;;;;;;;15.70;10.35;;;;;;;13.99;100.00;102386.91;5095492;28;20119;-83
2022/10/18 01:27:03;;;;;;;17.43;9.90;;;;;;;13.95;100.00;102382.94;5096116;28;20040;-83
2022/10/18 01:30:07;;;;;;;16.15;9.43;;;;;;;13.93;100.00;102389.63;5096074;28;20066;-83
2022/10/18 01:32:40;;;;;;;15.25;10.20;;;;;;;13.93;100.00;102385.00;5057862;28;20032;-83
2022/10/18 01:35:11;;;;;;;16.33;9.77;;;;;;;13.89;100.00;102380.97;5096252;28;20047;-83
2022/10/18 01:37:38;;;;;;;13.50;9.75;;;;;;;13.93;100.00;102398.63;5096005;28;20031;-82
2022/10/18 01:40:06;;;;;;;14.10;9.70;;;;;;;13.93;100.00;102390.44;5113953;28;20118;-83
2022/10/18 01:42:34;;;;;;;15.85;9.95;;;;;;;13.94;100.00;102403.06;5078887;28;20024;-83
2022/10/18 01:45:01;;;;;;;20.35;10.57;;;;;;;13.93;100.00;102403.25;5078717;28;20069;-83
2022/10/18 01:47:27;;;;;;;16.67;10.35;;;;;;;13.89;100.00;102397.34;5095761;28;20035;-83
2022/10/18 01:50:02;;;;;;;16.80;10.20;;;;;;;13.89;100.00;102391.88;5095783;28;20459;-83
2022/10/18 01:52:27;;;;;;;18.50;10.60;;;;;;;13.87;100.00;102399.44;5113753;28;20039;-83
2022/10/18 01:54:54;;;;;;;19.80;10.45;;;;;;;13.83;100.00;102392.69;5078626;28;20023;-83
2022/10/18 01:57:25;;;;;;;16.42;10.43;;;;;;;13.81;100.00;102394.78;5096004;28;20067;-83
2022/10/18 02:00:15;;;;;;;15.90;10.03;;;;;;;13.77;100.00;102397.06;5113721;28;20080;-82
2022/10/18 02:02:54;;;;;;;15.32;10.07;;;;;;;13.82;100.00;102391.03;5095856;28;20066;-83
2022/10/18 02:05:39;;;;;;;20.40;10.75;;;;;;;13.84;100.00;102389.75;5095751;28;20028;-83
2022/10/18 02:08:19;;;;;;;16.45;10.52;;;;;;;13.85;100.00;102394.19;5113963;28;20039;-82
2022/10/18 02:10:53;;;;;;;19.55;10.63;;;;;;;13.88;100.00;102394.81;5095900;28;20032;-83
2022/10/18 02:13:21;;;;;;;18.53;10.07;;;;;;;13.89;100.00;102397.34;5095710;28;20035;-83
2022/10/18 02:15:52;;;;;;;17.23;10.27;;;;;;;13.86;100.00;102393.16;5113618;28;20032;-83
2022/10/18 02:18:24;;;;;;;14.85;10.00;;;;;;;13.84;100.00;102383.47;5095539;28;20532;-83
2022/10/18 02:20:50;;;;;;;15.27;10.70;;;;;;;13.84;100.00;102386.19;5114205;28;20092;-83
2022/10/18 02:23:20;;;;;;;14.60;10.25;;;;;;;13.77;100.00;102388.88;5099009;28;20028;-82
2022/10/18 02:25:46;;;;;;;15.93;10.80;;;;;;;13.78;100.00;102396.03;5117034;28;20120;-82
2022/10/18 02:28:11;;;;;;;16.75;10.93;;;;;;;13.77;100.00;102396.22;5117042;28;20024;-82
2022/10/18 02:31:05;;;;;;;20.57;10.67;;;;;;;13.76;100.00;102397.25;5080988;28;20054;-83
2022/10/18 02:33:45;;;;;;;18.92;10.77;;;;;;;13.76;100.00;102400.84;5098365;28;20040;-83
2022/10/18 02:36:32;;;;;;;20.60;11.35;;;;;;;13.75;100.00;102401.88;5099676;28;20023;-82
2022/10/18 02:39:03;;;;;;;17.77;10.33;;;;;;;13.76;100.00;102402.72;5099056;28;20050;-83
2022/10/18 02:41:30;;;;;;;17.92;10.40;;;;;;;13.76;100.00;102398.13;5098730;28;20034;-82
2022/10/18 02:43:56;;;;;;;20.60;11.05;;;;;;;13.78;100.00;102404.22;5098464;28;20043;-83
2022/10/18 02:46:22;;;;;;;21.87;11.90;;;;;;;13.77;100.00;102410.69;5098439;28;20494;-82
2022/10/18 02:48:47;;;;;;;17.25;11.50;;;;;;;13.75;100.00;102406.50;5082178;28;20035;-83
2022/10/18 02:51:13;;;;;;;21.88;12.00;;;;;;;13.75;100.00;102407.34;5098396;28;20035;-83
2022/10/18 02:53:38;;;;;;;21.40;11.63;;;;;;;13.77;100.00;102407.97;5116724;28;20032;-83
2022/10/18 02:56:04;;;;;;;19.60;11.57;;;;;;;13.80;100.00;102407.59;5081555;28;20042;-83
2022/10/18 02:58:30;;;;;;;16.63;11.63;;;;;;;13.82;100.00;102402.78;5098264;28;20185;-83
2022/10/18 03:00:55;;;;;;;17.30;11.40;;;;;;;13.85;100.00;102407.81;5081458;28;20048;-83
2022/10/18 03:03:21;;;;;;;20.27;12.23;;;;;;;13.89;100.00;102401.97;5081120;28;20080;-83
2022/10/18 03:05:50;;;;;;;14.20;10.33;;;;;;;13.89;100.00;102408.25;5098157;28;20035;-83
2022/10/18 03:08:15;;;;;;;17.38;10.82;;;;;;;13.90;100.00;102406.38;5065517;28;20058;-83
2022/10/18 03:10:48;;;;;;;20.77;11.67;;;;;;;13.91;100.00;102414.38;5081356;28;20108;-83
2022/10/18 03:13:14;;;;;;;19.25;11.57;;;;;;;13.90;100.00;102411.84;5116935;28;20169;-83
2022/10/18 03:15:39;;;;;;;18.53;11.40;;;;;;;13.88;100.00;102405.72;5081098;28;20081;-83
2022/10/18 03:18:04;;;;;;;18.97;12.43;;;;;;;13.89;100.00;102410.97;5098037;28;20031;-83
2022/10/18 03:20:30;;;;;;;18.77;11.53;;;;;;;13.88;100.00;102400.28;5097951;28;20030;-83
2022/10/18 03:22:55;;;;;;;19.23;12.57;;;;;;;13.87;100.00;102399.44;5081045;28;20038;-83
2022/10/18 03:25:20;;;;;;;19.40;11.33;;;;;;;13.85;100.00;102409.72;5081037;28;20036;-83
2022/10/18 03:27:46;;;;;;;19.20;12.10;;;;;;;13.84;100.00;102417.03;5080766;28;20375;-83
2022/10/18 03:30:12;;;;;;;23.90;12.60;;;;;;;13.84;100.00;102419.78;5080648;28;20132;-83
2022/10/18 03:32:38;;;;;;;23.45;13.90;;;;;;;13.81;100.00;102411.97;5081120;28;20034;-83
2022/10/18 03:35:05;;;;;;;24.67;13.18;;;;;;;13.82;100.00;102410.94;5098177;28;20028;-83
2022/10/18 03:37:30;;;;;;;22.03;13.93;;;;;;;13.78;100.00;102412.38;5064150;28;20031;-83
2022/10/18 03:39:56;;;;;;;25.17;14.63;;;;;;;13.77;100.00;102407.97;5097313;28;20118;-83
2022/10/18 03:42:21;;;;;;;20.87;13.63;;;;;;;13.77;100.00;102415.31;5115528;28;20098;-83
2022/10/18 03:44:47;;;;;;;26.47;13.93;;;;;;;13.77;100.00;102420.78;5115752;28;20027;-83
2022/10/18 03:47:12;;;;;;;23.43;14.57;;;;;;;13.76;100.00;102409.03;5080448;28;20715;-83
2022/10/18 03:49:38;;;;;;;26.73;15.50;;;;;;;13.75;100.00;102409.22;5097517;28;20035;-83
2022/10/18 03:52:03;;;;;;;19.77;14.17;;;;;;;13.74;100.00;102400.19;5097670;28;20415;-83
2022/10/18 03:54:28;;;;;;;27.63;14.40;;;;;;;13.74;100.00;102402.06;5097136;28;20027;-83
2022/10/18 03:56:57;;;;;;;25.88;13.73;;;;;;;13.70;100.00;102390.72;5080300;28;20034;-83
2022/10/18 03:59:22;;;;;;;21.67;13.37;;;;;;;13.67;100.00;102400.16;5080191;28;20035;-83
2022/10/18 04:01:48;;;;;;;21.00;13.77;;;;;;;13.64;100.00;102388.78;5080465;28;20027;-83
2022/10/18 04:04:14;;;;;;;21.80;13.33;;;;;;;13.59;100.00;102404.91;5080375;28;20070;-83
2022/10/18 04:06:39;;;;;;;20.13;12.57;;;;;;;13.56;100.00;102399.84;5115251;28;20035;-83
2022/10/18 04:09:05;;;;;;;22.30;12.80;;;;;;;13.48;100.00;102401.66;5096792;28;20030;-83
2022/10/18 04:11:30;;;;;;;21.17;12.90;;;;;;;13.43;100.00;102401.41;5096918;28;20028;-82
2022/10/18 04:13:56;;;;;;;33.30;14.88;;;;;;;13.41;100.00;102395.31;5115188;28;20085;-83
2022/10/18 04:16:21;;;;;;;21.60;13.93;;;;;;;13.39;100.00;102405.59;5079905;28;20035;-82
2022/10/18 04:18:46;;;;;;;20.13;14.23;;;;;;;13.38;100.00;102403.88;5079936;28;20383;-83
2022/10/18 04:21:12;;;;;;;25.27;15.37;;;;;;;13.36;100.00;102400.53;5096680;28;20087;-83
2022/10/18 04:23:37;;;;;;;23.23;15.07;;;;;;;13.37;100.00;102404.09;5079289;28;20057;-83
2022/10/18 04:26:03;;;;;;;22.33;14.73;;;;;;;13.32;100.00;102408.22;5096862;28;20036;-83
2022/10/18 04:28:28;;;;;;;24.43;14.37;;;;;;;13.28;100.00;102408.78;5080441;28;20040;-83
2022/10/18 04:30:54;;;;;;;28.30;15.10;;;;;;;13.28;100.00;102417.81;5079423;28;20071;-83
2022/10/18 04:33:20;;;;;;;24.73;14.20;;;;;;;13.27;100.00;102413.41;5097258;28;20045;-83
2022/10/18 04:35:46;;;;;;;28.58;15.32;;;;;;;13.27;100.00;102410.69;5063228;28;20168;-83
2022/10/18 04:38:13;;;;;;;37.83;15.70;;;;;;;13.30;100.00;102414.88;5114727;28;20486;-82
2022/10/18 04:40:38;;;;;;;23.95;15.68;;;;;;;13.28;100.00;102420.53;5114582;28;20528;-83
2022/10/18 04:43:04;;;;;;;24.77;14.80;;;;;;;13.27;100.00;102420.72;5079048;28;20122;-83
2022/10/18 04:45:29;;;;;;;34.63;16.23;;;;;;;13.26;100.00;102419.06;5079538;28;20027;-84
2022/10/18 04:47:54;;;;;;;31.17;16.37;;;;;;;13.24;100.00;102412.94;5096193;28;20032;-83
2022/10/18 04:50:20;;;;;;;32.05;16.75;;;;;;;13.22;100.00;102412.31;5079336;28;20131;-83
2022/10/18 04:52:45;;;;;;;30.27;15.90;;;;;;;13.19;100.00;102424.44;5114633;28;20035;-83
2022/10/18 04:55:13;;;;;;;27.33;15.90;;;;;;;13.16;100.00;102425.66;5096553;28;20036;-83
2022/10/18 04:57:39;;;;;;;31.63;17.35;;;;;;;13.14;100.00;102426.91;5079588;28;20080;-83
2022/10/18 05:00:05;;;;;;;30.43;16.83;;;;;;;13.13;100.00;102430.66;5096157;28;20035;-82
2022/10/18 05:02:30;;;;;;;31.65;16.38;;;;;;;13.11;100.00;102427.28;5114321;28;20023;-83
2022/10/18 05:04:55;;;;;;;39.23;17.67;;;;;;;13.09;100.00;102413.84;5079384;28;20035;-83
2022/10/18 05:07:21;;;;;;;34.03;18.20;;;;;;;13.08;100.00;102409.44;5079005;28;20441;-82
2022/10/18 05:09:46;;;;;;;40.57;17.27;;;;;;;13.07;100.00;102423.28;5096212;28;20023;-83
2022/10/18 05:12:12;;;;;;;30.10;17.55;;;;;;;13.04;100.00;102424.50;5114472;28;20028;-83
2022/10/18 05:14:37;;;;;;;32.10;18.27;;;;;;;13.03;100.00;102421.97;5078924;28;20058;-83
2022/10/18 05:17:05;;;;;;;35.87;18.00;;;;;;;13.07;100.00;102434.16;5096144;28;20414;-83
2022/10/18 05:19:30;;;;;;;34.70;17.50;;;;;;;13.04;100.00;102429.13;5095840;28;20035;-83
2022/10/18 05:21:56;;;;;;;34.13;17.43;;;;;;;13.05;100.00;102422.59;5078921;28;20032;-83
2022/10/18 05:24:21;;;;;;;30.83;17.53;;;;;;;13.05;100.00;102433.50;5095786;28;20042;-83
2022/10/18 05:26:47;;;;;;;105.87;20.30;;;;;;;13.03;100.00;102435.59;5095501;28;20420;-83
2022/10/18 05:29:12;;;;;;;100.77;20.83;;;;;;;13.01;100.00;102441.22;5095149;28;20042;-84
2022/10/18 05:31:37;;;;;;;80.77;20.00;;;;;;;13.00;100.00;102428.63;5113654;28;20321;-84
2022/10/18 05:34:03;;;;;;;49.20;19.33;;;;;;;13.02;100.00;102439.34;5096159;28;20138;-84
2022/10/18 05:36:28;;;;;;;42.93;19.93;;;;;;;13.02;100.00;102448.38;5079587;28;20032;-84
2022/10/18 05:38:54;;;;;;;38.03;19.30;;;;;;;13.02;100.00;102445.66;5113734;28;20110;-84
2022/10/18 05:41:20;;;;;;;39.97;19.67;;;;;;;12.99;100.00;102446.88;5078254;28;20089;-83
2022/10/18 05:43:45;;;;;;;44.63;19.23;;;;;;;12.98;100.00;102445.19;5095770;28;20031;-84
2022/10/18 05:46:11;;;;;;;85.85;20.98;;;;;;;12.99;100.00;102440.56;5078531;28;20067;-84
2022/10/18 05:48:37;;;;;;;62.50;20.92;;;;;;;12.98;100.00;102425.28;5078632;28;20036;-84
2022/10/18 05:51:02;;;;;;;83.67;22.37;;;;;;;12.97;100.00;102440.75;5113956;28;20503;-84
2022/10/18 05:53:31;;;;;;;109.57;21.63;;;;;;;12.95;100.00;102445.56;5095344;28;20056;-84
2022/10/18 05:56:00;;;;;;;84.72;20.23;;;;;;;12.94;100.00;102448.47;5096447;28;20059;-84
2022/10/18 05:58:26;;;;;;;56.60;20.33;;;;;;;12.90;100.00;102448.03;5099534;28;20039;-84
2022/10/18 06:00:51;;;;;;;59.10;19.07;;;;;;;12.87;100.00;102442.94;5099297;28;20483;-84
2022/10/18 06:03:19;;;;;;;141.33;20.43;;;;;;;12.86;100.00;102443.13;5083156;28;20077;-84
2022/10/18 06:05:45;;;;;;;102.70;19.92;;;;;;;12.82;100.00;102454.41;5082127;28;20027;-84
2022/10/18 06:08:10;;;;;;;37.20;18.77;;;;;;;12.78;100.00;102460.44;5082818;28;20031;-84
2022/10/18 06:10:39;;;;;;;46.00;17.53;;;;;;;12.75;100.00;102458.94;5065387;28;20122;-84
2022/10/18 06:13:04;;;;;;;52.50;18.20;;;;;;;12.75;100.00;102463.56;5098357;28;20063;-84
2022/10/18 06:15:30;;;;;;;43.37;18.17;;;;;;;12.70;100.00;102460.56;5081783;28;20124;-83
2022/10/18 06:17:57;;;;;;;89.40;17.77;;;;;;;12.66;100.00;102446.47;5098622;28;20201;-84
2022/10/18 06:20:23;;;;;;;77.05;17.73;;;;;;;12.67;100.00;102452.75;5097964;28;20024;-83
2022/10/18 06:22:52;;;;;;;65.13;18.63;;;;;;;12.67;100.00;102464.50;5081478;28;20046;-84
2022/10/18 06:25:17;;;;;;;65.65;18.20;;;;;;;12.69;100.00;102472.50;5081463;28;20032;-84
2022/10/18 06:27:43;;;;;;;66.03;16.13;;;;;;;12.72;100.00;102472.94;5098464;28;20050;-84
2022/10/18 06:30:09;;;;;;;63.30;17.53;;;;;;;12.73;100.00;102469.19;5098249;28;20072;-84
2022/10/18 06:32:34;;;;;;;69.60;17.53;;;;;;;12.75;100.00;102469.00;5061584;28;20286;-84
2022/10/18 06:35:00;;;;;;;70.88;18.58;;;;;;;12.75;100.00;102474.44;5096701;28;20486;-83
2022/10/18 06:37:29;;;;;;;69.13;17.37;;;;;;;12.77;100.00;102475.09;5078580;28;20173;-84
2022/10/18 06:39:54;;;;;;;85.13;17.50;;;;;;;12.84;100.00;102486.91;5096299;28;20073;-84
2022/10/18 06:42:20;;;;;;;74.63;17.97;;;;;;;12.87;100.00;102482.97;5078351;28;20036;-84
2022/10/18 06:44:46;;;;;;;77.93;18.50;;;;;;;12.89;100.00;102484.47;5061669;28;20329;-83
2022/10/18 06:47:12;;;;;;;78.90;18.45;;;;;;;12.90;100.00;102482.59;5061744;28;20456;-84
2022/10/18 06:49:37;;;;;;;54.17;18.20;;;;;;;12.95;100.00;102480.97;5078155;28;20068;-84
2022/10/18 06:52:03;;;;;;;50.33;17.53;;;;;;;12.94;100.00;102481.19;5078418;28;20035;-84
2022/10/18 06:54:28;;;;;;;54.03;18.60;;;;;;;12.98;100.00;102490.66;5078267;28;20413;-83
2022/10/18 06:56:57;;;;;;;37.07;17.60;;;;;;;13.05;100.00;102501.63;5078007;28;20090;-84
2022/10/18 06:59:22;;;;;;;39.63;17.25;;;;;;;13.10;100.00;102512.81;5096125;28;20032;-84
2022/10/18 07:01:48;;;;;;;44.90;17.00;;;;;;;13.10;100.00;102515.53;5096025;28;20023;-84
2022/10/18 07:04:13;;;;;;;64.70;16.43;;;;;;;13.10;100.00;102516.38;5078041;28;20111;-84
2022/10/18 07:06:39;;;;;;;61.43;16.20;;;;;;;13.03;100.00;102511.88;5060865;28;20039;-84
2022/10/18 07:09:05;;;;;;;46.63;15.15;;;;;;;13.03;100.00;102518.16;5077630;28;20028;-84
2022/10/18 07:11:30;;;;;;;64.27;15.50;;;;;;;13.00;100.00;102524.00;5078090;28;20533;-84
2022/10/18 07:14:01;;;;;;;53.95;15.77;;;;;;;12.99;100.00;102536.78;5061965;28;20464;-83
2022/10/18 07:16:27;;;;;;;49.27;15.50;;;;;;;12.99;100.00;102534.06;5096237;28;20030;-84
2022/10/18 07:18:53;;;;;;;50.38;15.32;;;;;;;12.99;100.00;102534.06;5060984;28;20032;-84
2022/10/18 07:21:21;;;;;;;45.03;15.65;;;;;;;13.05;100.00;102531.59;5077486;28;20032;-84
2022/10/18 07:23:47;;;;;;;48.33;15.20;;;;;;;13.05;100.00;102526.16;5095635;28;20111;-84
2022/10/18 07:26:33;;;;;;;32.95;15.65;;;;;;;13.18;100.00;102531.75;5061021;28;20035;-84
2022/10/18 07:29:10;;;;;;;29.80;15.40;;;;;;;13.25;100.00;102546.31;5095706;28;20032;-84
2022/10/18 07:31:37;;;;;;;30.20;14.90;;;;;;;13.33;100.00;102553.53;5089250;28;20484;-84
2022/10/18 07:34:07;;;;;;;32.67;15.63;;;;;;;13.45;100.00;102556.63;5097356;28;20062;-84
2022/10/18 07:36:33;;;;;;;45.30;16.37;;;;;;;13.55;100.00;102559.03;5097879;28;20039;-84
2022/10/18 07:38:59;;;;;;;46.25;17.55;;;;;;;13.64;100.00;102566.91;5115483;28;20539;-84
2022/10/18 07:41:24;;;;;;;77.23;17.53;;;;;;;13.68;100.00;102570.09;5097159;28;20373;-84
2022/10/18 07:43:51;;;;;;;55.97;15.85;;;;;;;13.77;100.00;102571.63;5080320;28;20116;-84
2022/10/18 07:46:18;;;;;;;51.40;15.43;;;;;;;13.85;100.00;102571.53;5098212;28;20032;-84
2022/10/18 07:48:44;;;;;;;38.58;15.82;;;;;;;13.94;100.00;102582.31;5097305;28;20488;-84
2022/10/18 07:51:10;;;;;;;53.53;15.88;;;;;;;13.99;100.00;102586.13;5097430;28;20035;-84
2022/10/18 07:53:36;;;;;;;37.10;14.07;;;;;;;14.06;100.00;102590.81;5097175;28;20027;-84
2022/10/18 07:56:08;;;;;;;39.47;14.38;;;;;;;14.04;100.00;102596.47;5080315;28;20032;-84
2022/10/18 07:58:33;;;;;;;44.42;15.40;;;;;;;14.04;100.00;102596.47;5096754;28;20031;-84
2022/10/18 08:01:07;;;;;;;35.50;14.17;;;;;;;14.08;100.00;102603.22;5097039;28;20032;-84
2022/10/18 08:03:33;;;;;;;38.20;15.20;;;;;;;14.13;100.00;102597.16;5097319;28;20028;-84
2022/10/18 08:05:59;;;;;;;29.60;14.43;;;;;;;14.24;100.00;102606.72;5097523;28;20035;-84
2022/10/18 08:08:25;;;;;;;25.93;14.50;;;;;;;14.32;100.00;102612.03;5096725;28;20036;-84
2022/10/18 08:10:51;;;;;;;27.55;14.82;;;;;;;14.46;100.00;102621.19;5115218;28;20027;-84
2022/10/18 08:13:17;;;;;;;38.80;14.23;;;;;;;14.67;100.00;102620.31;5097164;28;20027;-84
2022/10/18 08:15:43;;;;;;;24.93;13.57;;;;;;;14.90;100.00;102623.59;5097102;28;20031;-84
2022/10/18 08:18:08;;;;;;;24.17;12.77;;;;;;;15.09;100.00;102622.03;5114317;28;20494;-84
2022/10/18 08:20:41;;;;;;;26.23;14.57;;;;;;;15.27;100.00;102623.38;5079833;28;20459;-84
2022/10/18 08:23:07;;;;;;;21.60;13.10;;;;;;;15.49;100.00;102621.38;5081993;28;20051;-84
2022/10/18 08:25:32;;;;;;;22.70;13.73;;;;;;;15.51;100.00;102627.47;5096789;28;20077;-84
2022/10/18 08:27:57;;;;;;;28.47;14.93;;;;;;;15.44;100.00;102632.94;5096498;28;20028;-84
2022/10/18 08:30:23;;;;;;;27.67;14.17;;;;;;;15.40;100.00;102623.44;5096582;28;20067;-84
2022/10/18 08:32:49;;;;;;;23.70;13.40;;;;;;;15.30;100.00;102633.91;5097131;28;20032;-84
2022/10/18 08:35:14;;;;;;;20.47;12.90;;;;;;;15.25;100.00;102642.72;5096493;28;20273;-84
2022/10/18 08:37:40;;;;;;;22.47;13.03;;;;;;;15.36;100.00;102640.47;5114789;28;20474;-84
2022/10/18 08:40:06;;;;;;;29.35;13.82;;;;;;;15.40;100.00;102648.06;5079647;28;20274;-84
2022/10/18 08:42:57;;;;;;;27.20;13.47;;;;;;;15.41;100.00;102651.63;5079472;28;20035;-84
2022/10/18 08:45:24;;;;;;;26.77;13.95;;;;;;;15.36;100.00;102645.94;5096703;28;20035;-84
2022/10/18 08:47:55;;;;;;;24.27;13.55;;;;;;;15.42;100.00;102639.66;5114579;28;20019;-84
2022/10/18 08:50:25;;;;;;;27.00;14.02;;;;;;;15.43;100.00;102633.13;5080874;28;20520;-83
2022/10/18 08:53:00;;;;;;;30.23;14.38;;;;;;;15.47;100.00;102639.03;5114543;28;20487;-84
2022/10/18 08:55:38;;;;;;;30.37;14.60;;;;;;;15.56;100.00;102649.59;5114181;28;20459;-84
2022/10/18 08:58:21;;;;;;;27.80;13.75;;;;;;;15.69;100.00;102640.56;5096193;28;20023;-84
2022/10/18 09:01:05;;;;;;;30.05;14.07;;;;;;;15.96;100.00;102654.38;5114179;28;20039;-84
2022/10/18 09:03:34;;;;;;;25.88;13.88;;;;;;;16.25;100.00;102657.78;5096003;28;20080;-84
2022/10/18 09:06:17;;;;;;;28.65;12.77;;;;;;;16.37;100.00;102647.88;5096071;28;20073;-84
2022/10/18 09:08:57;;;;;;;23.73;11.93;;;;;;;16.31;100.00;102646.84;5096879;28;20039;-84
2022/10/18 09:12:04;;;;;;;22.85;11.07;;;;;;;16.03;100.00;102651.63;5114628;28;20118;-84
2022/10/18 09:15:02;;;;;;;23.05;11.88;;;;;;;15.80;100.00;102652.84;5096604;28;20089;-84
2022/10/18 09:17:31;;;;;;;24.30;11.50;;;;;;;15.58;100.00;102646.66;5099891;28;20054;-84
2022/10/18 09:20:21;;;;;;;25.77;11.80;;;;;;;15.49;100.00;102662.41;5096094;28;20093;-84
2022/10/18 09:22:54;;;;;;;21.20;11.60;;;;;;;15.40;100.00;102660.91;5095883;28;20031;-83
2022/10/18 09:25:31;;;;;;;22.55;13.00;;;;;;;15.37;100.00;102644.91;5095867;28;20073;-84
2022/10/18 09:28:09;;;;;;;26.50;12.45;;;;;;;15.40;100.00;102642.59;5096302;28;20044;-86
2022/10/18 09:31:07;;;;;;;23.45;12.27;;;;;;;15.46;100.00;102657.34;5099748;28;20372;-84
2022/10/18 09:34:00;;;;;;;24.85;10.93;;;;;;;15.45;100.00;102650.16;5120888;28;20027;-84
2022/10/18 09:36:35;;;;;;;21.03;10.13;;;;;;;15.41;100.00;102648.88;5120646;28;20077;-84
2022/10/18 09:39:13;;;;;;;20.10;10.05;;;;;;;15.41;100.00;102646.16;5120887;28;20019;-85
2022/10/18 09:41:53;;;;;;;25.25;9.90;;;;;;;15.48;100.00;102660.69;5102607;28;20032;-83
2022/10/18 09:44:42;;;;;;;23.30;11.20;;;;;;;15.50;100.00;102657.75;5102686;28;20110;-84
2022/10/18 09:47:28;;;;;;;27.63;12.07;;;;;;;15.50;100.00;102652.28;5119978;28;20039;-84
2022/10/18 09:50:04;;;;;;;22.50;10.77;;;;;;;15.59;100.00;102654.66;5102713;28;20031;-84
2022/10/18 09:52:36;;;;;;;22.90;11.88;;;;;;;15.69;100.00;102661.63;5102044;28;20019;-84
2022/10/18 09:55:14;;;;;;;23.50;10.73;;;;;;;15.73;100.00;102662.91;5120424;28;20027;-85
2022/10/18 09:57:47;;;;;;;21.80;11.02;;;;;;;15.78;100.00;102660.41;5102459;28;20066;-85
2022/10/18 10:00:37;;;;;;;;;;;;;;;;;;;;;
2022/10/18 10:03:11;;;;;;;19.30;10.67;;;;;;;15.89;100.00;102659.00;5121141;28;20351;-85
2022/10/18 10:05:36;;;;;;;23.80;9.85;;;;;;;15.94;100.00;102654.59;5102016;28;20050;-84
2022/10/18 10:08:04;;;;;;;21.43;9.40;;;;;;;16.05;100.00;102657.75;5085352;28;20031;-84
2022/10/18 10:10:30;;;;;;;19.83;9.75;;;;;;;16.11;100.00;102659.66;5120565;28;20036;-84
2022/10/18 10:13:13;;;;;;;18.13;9.15;;;;;;;16.16;100.00;102657.13;5102490;28;20081;-84
2022/10/18 10:15:40;;;;;;;20.55;9.65;;;;;;;16.21;100.00;102649.13;5102525;28;20035;-85
2022/10/18 10:18:17;;;;;;;17.95;8.50;;;;;;;16.29;100.00;102650.81;5102567;28;20088;-84
2022/10/18 10:20:53;;;;;;;17.17;8.23;;;;;;;16.33;100.00;102649.34;5102180;28;20055;-84
2022/10/18 10:23:32;;;;;;;18.50;8.30;;;;;;;16.38;99.94;102649.56;5102325;28;20470;-84
2022/10/18 10:26:21;;;;;;;17.17;8.73;;;;;;;16.50;100.00;102655.25;5102121;28;20119;-84
2022/10/18 10:28:47;;;;;;;20.60;7.60;;;;;;;16.61;100.00;102653.78;5086122;28;20042;-84
2022/10/18 10:31:33;;;;;;;19.50;6.72;;;;;;;16.73;98.45;102653.97;5101645;28;20130;-84
2022/10/18 10:34:14;;;;;;;25.43;7.77;;;;;;;16.88;96.65;102657.34;5102785;28;20028;-85
2022/10/18 10:36:49;;;;;;;13.32;6.10;;;;;;;17.05;94.85;102665.97;5102023;28;20072;-84
2022/10/18 10:39:18;;;;;;;21.83;7.95;;;;;;;17.21;94.67;102667.38;5102131;28;20063;-84
2022/10/18 10:41:55;;;;;;;17.48;7.20;;;;;;;17.30;94.35;102671.59;5099493;28;20053;-84
2022/10/18 10:44:35;;;;;;;19.38;7.20;;;;;;;17.49;94.05;102680.81;5098665;28;20085;-84
2022/10/18 10:47:02;;;;;;;18.17;6.70;;;;;;;17.76;91.82;102679.81;5116499;28;20032;-85
2022/10/18 10:49:47;;;;;;;15.52;6.50;;;;;;;17.97;93.01;102684.19;5081321;28;20036;-84
2022/10/18 10:52:20;;;;;;;18.88;7.90;;;;;;;18.50;90.47;102678.31;5098172;28;20567;-84
2022/10/18 10:54:46;;;;;;;20.33;6.88;;;;;;;19.63;83.98;102675.44;5098934;28;20417;-84
2022/10/18 10:57:12;;;;;;;16.60;6.32;;;;;;;21.85;76.74;102679.66;5081231;28;20044;-84
2022/10/18 11:00:01;;;;;;;11.37;5.90;;;;;;;25.01;73.55;102680.56;5116180;28;20048;-84
2022/10/18 11:02:42;;;;;;;13.65;5.75;;;;;;;27.77;61.07;102678.06;5098429;28;20030;-85
2022/10/18 11:05:28;;;;;;;12.40;5.13;;;;;;;29.87;56.22;102671.41;5098176;28;20319;-84
2022/10/18 11:08:01;;;;;;;10.85;4.45;;;;;;;31.64;44.56;102671.44;5098518;28;20050;-84
2022/10/18 11:10:33;;;;;;;9.45;3.75;;;;;;;33.39;37.97;102675.25;5098047;28;20042;-85
2022/10/18 11:13:44;;;;;;;10.80;3.67;;;;;;;35.23;43.91;102657.16;5097970;28;20032;-84
2022/10/18 11:16:25;;;;;;;11.85;3.40;;;;;;;36.13;32.20;102664.22;5098886;28;20472;-84
2022/10/18 11:18:52;;;;;;;10.00;3.77;;;;;;;37.32;28.53;102658.94;5116436;28;20049;-84